Photometre #440[NE_1.6_Dp] Antikythera_NOA AOT

File : 20190928_440.hum

28/09/2019,05:03:37,TEMP=21.7,BA=5.40,STAT.A=13.0,ExtBa=12.90
28/09/2019,05:06:47,TEMP=22.0,BA=5.40,STAT.A=13.0,ExtBa=12.70
28/09/2019,05:10:30,TEMP=22.1,BA=5.36,STAT.A=13.0,ExtBa=12.70
28/09/2019,05:14:55,TEMP=22.1,BA=5.36,STAT.A=13.0,ExtBa=12.70
28/09/2019,05:20:14,TEMP=22.1,BA=5.40,STAT.A=13.0,ExtBa=12.70
28/09/2019,05:26:47,TEMP=22.1,BA=5.40,STAT.A=13.0,ExtBa=13.00
28/09/2019,05:35:04,TEMP=22.6,BA=5.60,STAT.B=13.0,ExtBa=13.50
28/09/2019,05:47:57,TEMP=23.8,BA=5.40,STAT.A=12.0,ExtBa=12.80
28/09/2019,05:49:53,TEMP=24.0,BA=5.40,STAT.A=12.0,ExtBa=13.00
28/09/2019,05:51:48,TEMP=24.1,BA=5.44,STAT.A=12.0,ExtBa=13.00
28/09/2019,05:54:05,TEMP=24.0,BA=5.44,STAT.A=13.0,ExtBa=12.90
28/09/2019,06:00:35,TEMP=23.6,BA=5.64,STAT.C=13.0,ExtBa=13.30
28/09/2019,06:13:12,TEMP=24.4,BA=5.40,STAT.A=13.0,ExtBa=12.70
28/09/2019,06:16:59,TEMP=24.1,BA=5.40,STAT.A=13.0,ExtBa=12.90
28/09/2019,06:27:33,TEMP=24.5,BA=5.64,STAT.A=13.0,ExtBa=13.60
28/09/2019,06:40:29,TEMP=25.0,BA=5.64,STAT.A=13.0,ExtBa=13.50
28/09/2019,06:56:43,TEMP=24.8,BA=5.64,STAT.B=13.0,ExtBa=13.30
28/09/2019,07:03:04,TEMP=24.8,BA=5.56,STAT.D=13.0,ExtBa=13.40
28/09/2019,07:18:06,TEMP=25.5,BA=5.64,STAT.F,ExtBa=13.50
28/09/2019,07:33:04,TEMP=25.7,BA=5.52,STAT.D=13.0,ExtBa=13.30
28/09/2019,07:48:05,TEMP=26.0,BA=5.64,STAT.D=13.0,ExtBa=13.60
28/09/2019,08:03:05,TEMP=27.0,BA=5.64,STAT.D=13.0,ExtBa=13.60
28/09/2019,08:18:06,TEMP=27.2,BA=5.64,STAT.F,ExtBa=13.60
28/09/2019,08:37:16,TEMP=27.0,BA=5.44,STAT.D=13.0,ExtBa=13.40
28/09/2019,08:48:05,TEMP=27.2,BA=5.64,STAT.D=13.0,ExtBa=13.40
28/09/2019,09:03:05,TEMP=27.7,BA=5.64,STAT.D=13.0,ExtBa=13.50
28/09/2019,09:18:07,TEMP=28.0,BA=5.64,STAT.F,ExtBa=13.50
28/09/2019,09:33:56,TEMP=28.1,BA=5.44,STAT.D=13.0,ExtBa=13.10
28/09/2019,09:48:05,TEMP=27.3,BA=5.60,STAT.D=13.0,ExtBa=13.30
28/09/2019,10:03:05,TEMP=27.5,BA=5.64,STAT.D=13.0,ExtBa=13.50
28/09/2019,10:18:07,TEMP=27.7,BA=5.64,STAT.F,ExtBa=13.40
28/09/2019,10:33:05,TEMP=27.8,BA=5.60,STAT.D=13.0,ExtBa=13.20
28/09/2019,10:48:05,TEMP=27.8,BA=5.64,STAT.D=13.0,ExtBa=13.20
28/09/2019,11:03:05,TEMP=28.2,BA=5.64,STAT.D=13.0,ExtBa=13.20
28/09/2019,11:18:07,TEMP=28.5,BA=5.60,STAT.F,ExtBa=13.10
28/09/2019,11:34:09,TEMP=28.3,BA=5.40,STAT.D=13.0,ExtBa=13.00
28/09/2019,11:48:05,TEMP=27.8,BA=5.52,STAT.D=13.0,ExtBa=13.00
28/09/2019,12:03:05,TEMP=27.8,BA=5.60,STAT.D=13.0,ExtBa=13.00
28/09/2019,12:18:06,TEMP=27.9,BA=5.56,STAT.F,ExtBa=13.00
28/09/2019,12:33:46,TEMP=28.2,BA=5.40,STAT.D=13.0,ExtBa=12.90
28/09/2019,12:48:05,TEMP=27.7,BA=5.52,STAT.D=13.0,ExtBa=13.00
28/09/2019,13:03:04,TEMP=27.7,BA=5.56,STAT.D=13.0,ExtBa=12.90
28/09/2019,13:18:06,TEMP=27.6,BA=5.56,STAT.F,ExtBa=12.90
28/09/2019,13:34:07,TEMP=27.6,BA=5.40,STAT.D=13.0,ExtBa=12.70
28/09/2019,13:39:29,TEMP=27.1,BA=5.40,STAT.B=13.0,ExtBa=12.80
28/09/2019,13:55:43,TEMP=26.8,BA=5.48,STAT.A=13.0,ExtBa=12.80
28/09/2019,14:08:38,TEMP=26.6,BA=5.52,STAT.A=13.0,ExtBa=12.80
28/09/2019,14:19:12,TEMP=26.4,BA=5.40,STAT.A=13.0,ExtBa=12.80
28/09/2019,14:28:04,TEMP=26.2,BA=5.40,STAT.A=13.0,ExtBa=12.80
28/09/2019,14:35:35,TEMP=26.0,BA=5.44,STAT.C=13.0,ExtBa=12.80
28/09/2019,14:52:46,TEMP=25.8,BA=5.36,STAT.A=13.0,ExtBa=12.70
28/09/2019,14:54:40,TEMP=25.7,BA=5.36,STAT.A=13.0,ExtBa=12.70
28/09/2019,14:56:29,TEMP=25.7,BA=5.36,STAT.A=13.0,ExtBa=12.70
28/09/2019,14:58:31,TEMP=25.6,BA=5.36,STAT.A=13.0,ExtBa=12.70
28/09/2019,15:01:06,TEMP=25.3,BA=5.36,STAT.B=13.0,ExtBa=12.70
28/09/2019,15:11:56,TEMP=25.1,BA=5.36,STAT.A=13.0,ExtBa=12.70
28/09/2019,15:15:56,TEMP=24.7,BA=5.36,STAT.A=13.0,ExtBa=12.70
28/09/2019,15:21:15,TEMP=24.5,BA=5.40,STAT.A=13.0,ExtBa=12.70
28/09/2019,15:29:08,TEMP=24.3,BA=5.40,STAT.A=13.0,ExtBa=12.80
28/09/2019,15:31:03,TEMP=24.6,BA=5.36,STAT.A=13.0,ExtBa=12.70
28/09/2019,15:32:58,TEMP=24.6,BA=5.36,STAT.A=13.0,ExtBa=12.70